sensor_id;sensor_type;location;lat;lon;timestamp;pressure;altitude;pressure_sealevel;temperature;humidity
73103;BME280;61294;65.988;29.172;2023-05-12T01:39:57;98633.75;;;3.43;66.34
73103;BME280;61294;65.988;29.172;2023-05-12T01:43:16;98633.78;;;3.45;67.01
73103;BME280;61294;65.988;29.172;2023-05-12T02:50:32;98677.00;;;4.59;66.86
73103;BME280;61294;65.988;29.172;2023-05-12T02:53:07;98681.69;;;4.75;67.01
73103;BME280;61294;65.988;29.172;2023-05-12T02:55:33;98684.53;;;4.86;66.62
73103;BME280;61294;65.988;29.172;2023-05-12T02:57:59;98680.47;;;5.04;66.54
73103;BME280;61294;65.988;29.172;2023-05-12T03:00:25;98672.91;;;5.17;66.72
73103;BME280;61294;65.988;29.172;2023-05-12T03:02:51;98682.53;;;5.22;66.08
73103;BME280;61294;65.988;29.172;2023-05-12T03:05:16;98655.31;;;5.09;66.09
73103;BME280;61294;65.988;29.172;2023-05-12T03:07:42;98661.53;;;5.15;66.56
73103;BME280;61294;65.988;29.172;2023-05-12T03:10:08;98680.91;;;5.28;66.71
73103;BME280;61294;65.988;29.172;2023-05-12T03:12:35;98680.94;;;5.31;66.38
73103;BME280;61294;65.988;29.172;2023-05-12T03:15:02;98687.16;;;5.38;66.55
73103;BME280;61294;65.988;29.172;2023-05-12T03:17:29;98692.41;;;5.41;66.58
73103;BME280;61294;65.988;29.172;2023-05-12T03:19:54;98682.97;;;5.49;66.23
73103;BME280;61294;65.988;29.172;2023-05-12T03:22:20;98668.13;;;5.45;65.75
73103;BME280;61294;65.988;29.172;2023-05-12T03:24:46;98667.34;;;5.51;65.79
73103;BME280;61294;65.988;29.172;2023-05-12T03:27:12;98641.91;;;5.39;66.42
73103;BME280;61294;65.988;29.172;2023-05-12T03:29:37;98691.91;;;5.64;65.76
73103;BME280;61294;65.988;29.172;2023-05-12T03:32:04;98684.13;;;5.67;66.02
73103;BME280;61294;65.988;29.172;2023-05-12T03:34:30;98669.19;;;5.60;66.11
73103;BME280;61294;65.988;29.172;2023-05-12T03:36:55;98651.81;;;5.60;66.24
73103;BME280;61294;65.988;29.172;2023-05-12T03:39:21;98659.75;;;5.68;66.05
73103;BME280;61294;65.988;29.172;2023-05-12T03:41:49;98653.69;;;5.70;65.96
73103;BME280;61294;65.988;29.172;2023-05-12T03:44:15;98671.31;;;5.85;65.87
73103;BME280;61294;65.988;29.172;2023-05-12T03:46:41;98677.44;;;5.86;66.06
73103;BME280;61294;65.988;29.172;2023-05-12T03:49:06;98662.56;;;5.82;65.85
73103;BME280;61294;65.988;29.172;2023-05-12T03:51:32;98653.03;;;5.87;65.78
73103;BME280;61294;65.988;29.172;2023-05-12T03:53:58;98681.22;;;6.03;65.87
73103;BME280;61294;65.988;29.172;2023-05-12T03:56:24;98677.84;;;6.12;65.84
73103;BME280;61294;65.988;29.172;2023-05-12T03:58:50;98683.09;;;6.15;65.57
73103;BME280;61294;65.988;29.172;2023-05-12T04:01:15;98681.44;;;6.20;65.46
73103;BME280;61294;65.988;29.172;2023-05-12T04:03:41;98679.84;;;6.30;65.59
73103;BME280;61294;65.988;29.172;2023-05-12T04:06:07;98673.81;;;6.36;65.21
73103;BME280;61294;65.988;29.172;2023-05-12T04:08:33;98637.97;;;6.29;65.10
73103;BME280;61294;65.988;29.172;2023-05-12T04:11:00;98677.56;;;6.61;64.67
73103;BME280;61294;65.988;29.172;2023-05-12T04:13:27;98669.00;;;6.73;64.69
73103;BME280;61294;65.988;29.172;2023-05-12T04:15:57;98669.06;;;6.81;64.14
73103;BME280;61294;65.988;29.172;2023-05-12T04:18:27;98679.44;;;6.70;64.94
73103;BME280;61294;65.988;29.172;2023-05-12T04:20:53;98679.47;;;6.73;64.37
73103;BME280;61294;65.988;29.172;2023-05-12T04:23:19;98689.13;;;6.77;65.00
73103;BME280;61294;65.988;29.172;2023-05-12T04:25:45;98689.19;;;6.86;64.31
73103;BME280;61294;65.988;29.172;2023-05-12T04:28:11;98680.56;;;6.97;64.62
73103;BME280;61294;65.988;29.172;2023-05-12T04:30:39;98695.47;;;7.02;63.75
73103;BME280;61294;65.988;29.172;2023-05-12T04:33:05;98682.38;;;7.02;63.82
73103;BME280;61294;65.988;29.172;2023-05-12T04:35:31;98675.31;;;6.94;64.01
73103;BME280;61294;65.988;29.172;2023-05-12T04:37:56;98682.28;;;6.91;64.15
73103;BME280;61294;65.988;29.172;2023-05-12T04:40:22;98677.94;;;6.94;64.02
73103;BME280;61294;65.988;29.172;2023-05-12T04:42:48;98676.22;;;6.96;64.35
73103;BME280;61294;65.988;29.172;2023-05-12T04:45:14;98671.84;;;6.96;64.15
73103;BME280;61294;65.988;29.172;2023-05-12T04:47:40;98675.41;;;7.01;64.07
73103;BME280;61294;65.988;29.172;2023-05-12T04:50:06;98685.00;;;7.02;64.42
73103;BME280;61294;65.988;29.172;2023-05-12T04:52:32;98684.13;;;7.03;64.50
73103;BME280;61294;65.988;29.172;2023-05-12T04:54:58;98680.72;;;7.09;64.40
73103;BME280;61294;65.988;29.172;2023-05-12T04:57:23;98683.44;;;7.20;64.43
73103;BME280;61294;65.988;29.172;2023-05-12T04:59:49;98691.31;;;7.21;63.99
73103;BME280;61294;65.988;29.172;2023-05-12T05:02:15;98674.66;;;7.18;64.01
73103;BME280;61294;65.988;29.172;2023-05-12T05:04:41;98680.03;;;7.30;63.98
73103;BME280;61294;65.988;29.172;2023-05-12T05:07:07;98688.78;;;7.34;63.95
73103;BME280;61294;65.988;29.172;2023-05-12T05:09:33;98686.22;;;7.37;63.89
73103;BME280;61294;65.988;29.172;2023-05-12T05:11:58;98688.91;;;7.46;63.79
73103;BME280;61294;65.988;29.172;2023-05-12T05:14:24;98694.16;;;7.49;63.79
73103;BME280;61294;65.988;29.172;2023-05-12T05:16:50;98689.88;;;7.60;63.85
73103;BME280;61294;65.988;29.172;2023-05-12T05:19:16;98691.63;;;7.55;63.42
73103;BME280;61294;65.988;29.172;2023-05-12T05:21:42;98689.97;;;7.68;63.62
73103;BME280;61294;65.988;29.172;2023-05-12T05:24:08;98678.56;;;7.68;63.28
73103;BME280;61294;65.988;29.172;2023-05-12T05:26:34;98690.00;;;7.73;63.05
73103;BME280;61294;65.988;29.172;2023-05-12T05:29:00;98691.78;;;7.82;63.27
73103;BME280;61294;65.988;29.172;2023-05-12T05:31:27;98703.16;;;7.82;62.83
73103;BME280;61294;65.988;29.172;2023-05-12T05:33:53;98697.13;;;7.91;63.27
73103;BME280;61294;65.988;29.172;2023-05-12T05:36:21;98697.06;;;7.89;63.43
73103;BME280;61294;65.988;29.172;2023-05-12T05:38:47;98702.41;;;8.00;63.34
73103;BME280;61294;65.988;29.172;2023-05-12T05:41:13;98702.41;;;8.02;62.78
73103;BME280;61294;65.988;29.172;2023-05-12T05:43:39;98712.06;;;8.06;63.40
73103;BME280;61294;65.988;29.172;2023-05-12T05:46:04;98706.81;;;8.06;62.60
73103;BME280;61294;65.988;29.172;2023-05-12T05:48:31;98708.59;;;8.13;63.05
73103;BME280;61294;65.988;29.172;2023-05-12T05:50:56;98707.78;;;8.20;62.50
73103;BME280;61294;65.988;29.172;2023-05-12T05:53:22;98685.88;;;8.13;62.41
73103;BME280;61294;65.988;29.172;2023-05-12T05:55:48;98666.56;;;8.01;62.14
73103;BME280;61294;65.988;29.172;2023-05-12T05:58:14;98703.44;;;8.28;62.46
73103;BME280;61294;65.988;29.172;2023-05-12T06:00:41;98714.88;;;8.40;62.51
73103;BME280;61294;65.988;29.172;2023-05-12T06:03:08;98685.94;;;8.30;62.45
73103;BME280;61294;65.988;29.172;2023-05-12T06:05:34;98724.59;;;8.49;61.96
73103;BME280;61294;65.988;29.172;2023-05-12T06:08:00;98711.44;;;8.45;62.24
73103;BME280;61294;65.988;29.172;2023-05-12T06:10:26;98699.16;;;8.43;62.29
73103;BME280;61294;65.988;29.172;2023-05-12T06:12:52;98718.50;;;8.56;62.40
73103;BME280;61294;65.988;29.172;2023-05-12T06:15:17;98713.25;;;8.54;62.37
73103;BME280;61294;65.988;29.172;2023-05-12T06:17:43;98710.63;;;8.57;62.53
73103;BME280;61294;65.988;29.172;2023-05-12T06:20:09;98708.03;;;8.65;62.31
73103;BME280;61294;65.988;29.172;2023-05-12T06:22:37;98713.31;;;8.79;62.09
73103;BME280;61294;65.988;29.172;2023-05-12T06:25:04;98724.72;;;8.83;62.03
73103;BME280;61294;65.988;29.172;2023-05-12T06:27:30;98684.38;;;8.60;62.52
73103;BME280;61294;65.988;29.172;2023-05-12T06:29:55;98722.09;;;8.83;62.73
73103;BME280;61294;65.988;29.172;2023-05-12T06:32:21;98673.91;;;8.67;62.23
73103;BME280;61294;65.988;29.172;2023-05-12T06:34:47;98737.03;;;8.96;62.47
73103;BME280;61294;65.988;29.172;2023-05-12T06:37:13;98726.50;;;8.91;61.73
73103;BME280;61294;65.988;29.172;2023-05-12T06:39:39;98713.31;;;8.77;62.45
73103;BME280;61294;65.988;29.172;2023-05-12T06:42:05;98733.53;;;8.92;62.51
73103;BME280;61294;65.988;29.172;2023-05-12T06:44:30;98729.19;;;9.04;62.51
73103;BME280;61294;65.988;29.172;2023-05-12T06:46:56;98712.56;;;9.11;62.16
73103;BME280;61294;65.988;29.172;2023-05-12T06:49:22;98730.09;;;9.24;61.15
73103;BME280;61294;65.988;29.172;2023-05-12T06:51:48;98731.00;;;9.26;60.78
73103;BME280;61294;65.988;29.172;2023-05-12T06:54:14;98738.88;;;9.36;61.01
73103;BME280;61294;65.988;29.172;2023-05-12T06:56:40;98733.63;;;9.34;60.69
73103;BME280;61294;65.988;29.172;2023-05-12T06:59:05;98732.72;;;9.30;60.27
73103;BME280;61294;65.988;29.172;2023-05-12T07:01:31;98738.00;;;9.38;60.85
73103;BME280;61294;65.988;29.172;2023-05-12T07:03:58;98740.66;;;9.50;60.24
73103;BME280;61294;65.988;29.172;2023-05-12T07:06:24;98734.50;;;9.42;59.83
73103;BME280;61294;65.988;29.172;2023-05-12T07:08:54;98743.25;;;9.40;59.59
73103;BME280;61294;65.988;29.172;2023-05-12T07:11:21;98736.25;;;9.43;59.91
73103;BME280;61294;65.988;29.172;2023-05-12T07:13:48;98733.63;;;9.53;59.69
73103;BME280;61294;65.988;29.172;2023-05-12T07:16:15;98761.69;;;9.60;58.63
73103;BME280;61294;65.988;29.172;2023-05-12T07:18:42;98754.69;;;9.63;58.52
73103;BME280;61294;65.988;29.172;2023-05-12T07:21:08;98758.19;;;9.59;58.25
73103;BME280;61294;65.988;29.172;2023-05-12T07:23:35;98771.34;;;9.65;57.42
73103;BME280;61294;65.988;29.172;2023-05-12T07:26:03;98769.63;;;9.69;57.03
73103;BME280;61294;65.988;29.172;2023-05-12T07:28:30;98775.72;;;9.71;57.17
73103;BME280;61294;65.988;29.172;2023-05-12T07:31:03;98768.72;;;9.70;57.07
73103;BME280;61294;65.988;29.172;2023-05-12T07:33:29;98774.00;;;9.81;56.79
73103;BME280;61294;65.988;29.172;2023-05-12T07:35:55;98780.13;;;9.86;56.95
73103;BME280;61294;65.988;29.172;2023-05-12T07:38:21;98767.84;;;9.91;57.00
73103;BME280;61294;65.988;29.172;2023-05-12T07:40:49;98765.22;;;9.85;56.56
73103;BME280;61294;65.988;29.172;2023-05-12T07:43:16;98753.81;;;9.86;56.55
73103;BME280;61294;65.988;29.172;2023-05-12T07:45:42;98738.91;;;9.80;56.46
73103;BME280;61294;65.988;29.172;2023-05-12T07:48:08;98785.38;;;10.01;55.39
73103;BME280;61294;65.988;29.172;2023-05-12T07:50:35;98790.66;;;10.11;55.72
73103;BME280;61294;65.988;29.172;2023-05-12T07:53:01;98785.38;;;10.18;55.79
73103;BME280;61294;65.988;29.172;2023-05-12T07:55:29;98784.50;;;10.30;55.70
73103;BME280;61294;65.988;29.172;2023-05-12T07:57:55;98781.00;;;10.25;55.87
73103;BME280;61294;65.988;29.172;2023-05-12T08:00:21;98793.28;;;10.35;55.51
73103;BME280;61294;65.988;29.172;2023-05-12T08:02:46;98789.75;;;10.43;55.41
73103;BME280;61294;65.988;29.172;2023-05-12T08:05:12;98799.41;;;10.47;54.27
73103;BME280;61294;65.988;29.172;2023-05-12T08:07:39;98792.34;;;10.61;54.97
73103;BME280;61294;65.988;29.172;2023-05-12T08:10:08;98786.19;;;10.73;54.40
73103;BME280;61294;65.988;29.172;2023-05-12T08:12:34;98797.56;;;10.81;54.08
73103;BME280;61294;65.988;29.172;2023-05-12T08:15:00;98798.41;;;10.90;53.97
73103;BME280;61294;65.988;29.172;2023-05-12T08:17:26;98796.59;;;11.07;53.83
73103;BME280;61294;65.988;29.172;2023-05-12T08:19:52;98791.34;;;10.99;52.79
73103;BME280;61294;65.988;29.172;2023-05-12T08:22:17;98805.34;;;11.15;52.94
73103;BME280;61294;65.988;29.172;2023-05-12T08:24:44;98793.88;;;11.24;53.85
73103;BME280;61294;65.988;29.172;2023-05-12T08:27:10;98806.97;;;11.39;53.13
73103;BME280;61294;65.988;29.172;2023-05-12T08:29:36;98811.38;;;11.40;52.70
73103;BME280;61294;65.988;29.172;2023-05-12T08:32:03;98810.50;;;11.37;52.36
73103;BME280;61294;65.988;29.172;2023-05-12T08:34:29;98799.03;;;11.49;52.08
73103;BME280;61294;65.988;29.172;2023-05-12T08:36:55;98810.38;;;11.62;52.46
73103;BME280;61294;65.988;29.172;2023-05-12T08:39:21;98778.56;;;11.83;51.84
73103;BME280;61294;65.988;29.172;2023-05-12T08:44:18;98819.81;;;12.00;50.67
73103;BME280;61294;65.988;29.172;2023-05-12T08:46:45;98807.41;;;12.09;51.06
73103;BME280;61294;65.988;29.172;2023-05-12T08:49:16;98807.31;;;12.20;50.82
73103;BME280;61294;65.988;29.172;2023-05-12T08:51:43;98816.09;;;12.24;50.47
73103;BME280;61294;65.988;29.172;2023-05-12T08:54:11;98826.59;;;12.32;50.09
73103;BME280;61294;65.988;29.172;2023-05-12T08:56:38;98818.47;;;12.52;50.25
73103;BME280;61294;65.988;29.172;2023-05-12T08:59:07;98833.03;;;12.93;49.29
73103;BME280;61294;65.988;29.172;2023-05-12T09:01:34;98821.56;;;12.95;49.18
73103;BME280;61294;65.988;29.172;2023-05-12T09:04:01;98834.84;;;13.59;49.19
73103;BME280;61294;65.988;29.172;2023-05-12T09:06:29;98825.97;;;13.63;47.60
73103;BME280;61294;65.988;29.172;2023-05-12T09:08:55;98821.50;;;14.25;47.68
73103;BME280;61294;65.988;29.172;2023-05-12T09:11:21;98814.00;;;14.50;46.39
73103;BME280;61294;65.988;29.172;2023-05-12T09:14:01;98838.47;;;14.14;46.14
73103;BME280;61294;65.988;29.172;2023-05-12T09:16:36;98827.44;;;14.39;45.59
73103;BME280;61294;65.988;29.172;2023-05-12T09:19:04;98826.66;;;14.34;45.66
73103;BME280;61294;65.988;29.172;2023-05-12T09:21:30;98828.69;;;14.71;45.13
73103;BME280;61294;65.988;29.172;2023-05-12T09:24:01;98821.22;;;14.92;45.21
73103;BME280;61294;65.988;29.172;2023-05-12T09:26:31;98813.22;;;16.15;43.87
73103;BME280;61294;65.988;29.172;2023-05-12T09:29:05;98826.91;;;15.98;42.48
73103;BME280;61294;65.988;29.172;2023-05-12T09:31:32;98827.47;;;16.82;40.37
73103;BME280;61294;65.988;29.172;2023-05-12T09:33:58;98837.53;;;21.63;33.30
73103;BME280;61294;65.988;29.172;2023-05-12T09:36:27;98833.28;;;24.50;29.53
73103;BME280;61294;65.988;29.172;2023-05-12T09:39:01;98840.41;;;27.58;25.45
73103;BME280;61294;65.988;29.172;2023-05-12T09:41:41;98845.75;;;29.29;22.81
73103;BME280;61294;65.988;29.172;2023-05-12T09:44:08;98844.16;;;29.94;22.20
73103;BME280;61294;65.988;29.172;2023-05-12T09:46:35;98844.66;;;28.36;23.00
73103;BME280;61294;65.988;29.172;2023-05-12T09:49:01;98841.31;;;29.61;21.32
73103;BME280;61294;65.988;29.172;2023-05-12T09:51:28;98839.56;;;28.07;21.93
73103;BME280;61294;65.988;29.172;2023-05-12T09:53:56;98848.53;;;28.69;21.39
73103;BME280;61294;65.988;29.172;2023-05-12T09:56:22;98836.41;;;28.13;22.27
73103;BME280;61294;65.988;29.172;2023-05-12T09:58:52;98852.34;;;28.66;21.49
73103;BME280;61294;65.988;29.172;2023-05-12T10:01:19;98837.50;;;31.07;20.55
73103;BME280;61294;65.988;29.172;2023-05-12T10:03:50;98854.09;;;31.25;19.94
73103;BME280;61294;65.988;29.172;2023-05-12T10:06:31;98853.72;;;31.91;19.55
73103;BME280;61294;65.988;29.172;2023-05-12T10:09:22;98853.19;;;29.60;20.41
73103;BME280;61294;65.988;29.172;2023-05-12T10:11:50;98853.16;;;31.97;19.29
73103;BME280;61294;65.988;29.172;2023-05-12T10:14:16;98864.03;;;31.97;18.88
73103;BME280;61294;65.988;29.172;2023-05-12T10:16:44;98858.31;;;32.00;18.30
73103;BME280;61294;65.988;29.172;2023-05-12T10:19:14;98863.28;;;30.15;19.67
73103;BME280;61294;65.988;29.172;2023-05-12T10:21:42;98869.50;;;29.83;20.08
73103;BME280;61294;65.988;29.172;2023-05-12T10:24:15;98871.72;;;30.56;19.33
73103;BME280;61294;65.988;29.172;2023-05-12T10:26:44;98866.66;;;32.89;17.96
73103;BME280;61294;65.988;29.172;2023-05-12T10:29:10;98875.94;;;33.92;16.89
73103;BME280;61294;65.988;29.172;2023-05-12T10:31:37;98873.75;;;31.07;19.06
73103;BME280;61294;65.988;29.172;2023-05-12T10:34:03;98870.28;;;28.91;20.89
73103;BME280;61294;65.988;29.172;2023-05-12T10:36:41;98870.41;;;28.90;20.41
73103;BME280;61294;65.988;29.172;2023-05-12T10:39:07;98881.09;;;31.38;20.09
73103;BME280;61294;65.988;29.172;2023-05-12T10:41:34;98878.44;;;33.76;17.96
73103;BME280;61294;65.988;29.172;2023-05-12T10:44:00;98870.31;;;33.46;17.61
73103;BME280;61294;65.988;29.172;2023-05-12T10:46:27;98887.34;;;33.01;17.34
73103;BME280;61294;65.988;29.172;2023-05-12T10:48:55;98895.59;;;33.58;17.72
73103;BME280;61294;65.988;29.172;2023-05-12T10:51:30;98893.41;;;30.78;18.84
73103;BME280;61294;65.988;29.172;2023-05-12T10:53:56;98889.44;;;33.94;17.48
73103;BME280;61294;65.988;29.172;2023-05-12T10:56:39;98888.22;;;33.78;17.31
73103;BME280;61294;65.988;29.172;2023-05-12T10:59:18;98893.56;;;33.50;17.89
73103;BME280;61294;65.988;29.172;2023-05-12T11:02:21;98899.97;;;34.44;16.94
73103;BME280;61294;65.988;29.172;2023-05-12T11:04:55;98902.34;;;34.93;16.06
73103;BME280;61294;65.988;29.172;2023-05-12T11:07:24;98899.84;;;37.15;14.59
73103;BME280;61294;65.988;29.172;2023-05-12T11:09:58;98908.41;;;34.23;15.67
73103;BME280;61294;65.988;29.172;2023-05-12T11:12:25;98901.03;;;35.33;15.79
73103;BME280;61294;65.988;29.172;2023-05-12T11:14:51;98911.50;;;32.35;17.71
73103;BME280;61294;65.988;29.172;2023-05-12T11:17:17;98904.75;;;29.49;20.09
73103;BME280;61294;65.988;29.172;2023-05-12T11:19:47;98899.97;;;30.97;20.15
73103;BME280;61294;65.988;29.172;2023-05-12T11:22:17;98910.38;;;33.55;17.84
73103;BME280;61294;65.988;29.172;2023-05-12T11:24:44;98915.41;;;31.08;19.30
73103;BME280;61294;65.988;29.172;2023-05-12T11:27:17;98916.19;;;28.33;22.31
73103;BME280;61294;65.988;29.172;2023-05-12T11:29:53;98909.56;;;34.20;17.81
73103;BME280;61294;65.988;29.172;2023-05-12T11:32:19;98920.28;;;29.12;20.84
73103;BME280;61294;65.988;29.172;2023-05-12T11:34:45;98926.69;;;24.96;24.70
73103;BME280;61294;65.988;29.172;2023-05-12T11:37:12;98930.56;;;23.78;26.37
73103;BME280;61294;65.988;29.172;2023-05-12T11:39:38;98934.91;;;22.22;28.62
73103;BME280;61294;65.988;29.172;2023-05-12T11:42:07;98933.97;;;22.42;29.36
73103;BME280;61294;65.988;29.172;2023-05-12T11:44:36;98934.22;;;22.17;28.34
73103;BME280;61294;65.988;29.172;2023-05-12T11:49:31;98937.84;;;21.78;29.55
73103;BME280;61294;65.988;29.172;2023-05-12T11:51:59;98940.22;;;22.60;29.35
73103;BME280;61294;65.988;29.172;2023-05-12T11:54:29;98922.44;;;23.29;28.17
73103;BME280;61294;65.988;29.172;2023-05-12T11:56:56;98938.34;;;21.67;29.72
73103;BME280;61294;65.988;29.172;2023-05-12T11:59:32;98941.31;;;20.32;31.36
73103;BME280;61294;65.988;29.172;2023-05-12T12:02:02;98951.91;;;20.80;31.64
73103;BME280;61294;65.988;29.172;2023-05-12T12:04:38;98942.41;;;21.76;29.46
73103;BME280;61294;65.988;29.172;2023-05-12T12:07:07;98947.41;;;20.80;30.99
73103;BME280;61294;65.988;29.172;2023-05-12T12:09:36;98948.03;;;21.08;30.56
73103;BME280;61294;65.988;29.172;2023-05-12T12:12:03;98955.19;;;22.47;29.49
73103;BME280;61294;65.988;29.172;2023-05-12T12:14:31;98966.53;;;22.71;28.10
73103;BME280;61294;65.988;29.172;2023-05-12T12:16:58;98948.19;;;25.57;24.85
73103;BME280;61294;65.988;29.172;2023-05-12T12:19:24;98940.75;;;22.49;28.07
73103;BME280;61294;65.988;29.172;2023-05-12T12:21:50;98965.59;;;25.06;26.03
73103;BME280;61294;65.988;29.172;2023-05-12T12:24:16;98944.06;;;24.60;26.32
73103;BME280;61294;65.988;29.172;2023-05-12T12:26:42;98958.16;;;27.50;24.09
73103;BME280;61294;65.988;29.172;2023-05-12T12:29:08;98954.72;;;31.78;20.30
73103;BME280;61294;65.988;29.172;2023-05-12T12:31:34;98961.13;;;32.29;19.78
73103;BME280;61294;65.988;29.172;2023-05-12T12:34:01;98969.00;;;34.28;17.86
73103;BME280;61294;65.988;29.172;2023-05-12T12:36:28;98961.41;;;32.86;17.85
73103;BME280;61294;65.988;29.172;2023-05-12T12:38:53;98964.06;;;29.54;20.43
73103;BME280;61294;65.988;29.172;2023-05-12T12:41:21;98952.25;;;30.34;19.73
73103;BME280;61294;65.988;29.172;2023-05-12T12:43:47;98971.03;;;32.09;19.56
73103;BME280;61294;65.988;29.172;2023-05-12T12:46:13;98976.63;;;30.24;19.92
73103;BME280;61294;65.988;29.172;2023-05-12T12:48:38;98986.31;;;26.66;23.00
73103;BME280;61294;65.988;29.172;2023-05-12T12:51:04;98990.94;;;23.73;25.85
73103;BME280;61294;65.988;29.172;2023-05-12T12:53:31;98987.13;;;25.53;25.47
73103;BME280;61294;65.988;29.172;2023-05-12T12:55:57;98993.91;;;23.51;26.92
73103;BME280;61294;65.988;29.172;2023-05-12T12:58:23;98999.28;;;23.51;27.58
73103;BME280;61294;65.988;29.172;2023-05-12T13:00:49;98981.47;;;23.48;27.32
73103;BME280;61294;65.988;29.172;2023-05-12T13:03:14;98995.06;;;22.54;28.70
73103;BME280;61294;65.988;29.172;2023-05-12T13:05:40;98997.41;;;21.84;29.92
73103;BME280;61294;65.988;29.172;2023-05-12T13:08:06;98996.06;;;21.55;30.39
73103;BME280;61294;65.988;29.172;2023-05-12T13:10:32;99005.19;;;21.29;31.21
73103;BME280;61294;65.988;29.172;2023-05-12T13:12:58;98992.31;;;20.74;31.17
73103;BME280;61294;65.988;29.172;2023-05-12T13:15:25;99004.22;;;20.65;31.75
73103;BME280;61294;65.988;29.172;2023-05-12T13:17:51;99011.16;;;20.71;32.65
73103;BME280;61294;65.988;29.172;2023-05-12T13:20:16;99018.38;;;20.91;31.70
73103;BME280;61294;65.988;29.172;2023-05-12T13:22:43;99014.00;;;20.66;32.64
73103;BME280;61294;65.988;29.172;2023-05-12T13:25:09;99013.34;;;20.13;32.87
73103;BME280;61294;65.988;29.172;2023-05-12T13:27:37;99021.59;;;19.83;32.93
73103;BME280;61294;65.988;29.172;2023-05-12T13:30:04;99031.91;;;19.42;33.52
73103;BME280;61294;65.988;29.172;2023-05-12T13:32:32;99010.66;;;19.64;34.31
73103;BME280;61294;65.988;29.172;2023-05-12T13:34:58;99027.50;;;19.66;33.64
73103;BME280;61294;65.988;29.172;2023-05-12T13:37:24;99032.53;;;19.24;34.68
73103;BME280;61294;65.988;29.172;2023-05-12T13:39:50;99018.44;;;19.20;34.72
73103;BME280;61294;65.988;29.172;2023-05-12T13:42:16;99026.00;;;19.07;34.61
73103;BME280;61294;65.988;29.172;2023-05-12T13:44:41;99020.50;;;18.84;34.59
73103;BME280;61294;65.988;29.172;2023-05-12T13:47:07;99047.09;;;18.58;36.12
73103;BME280;61294;65.988;29.172;2023-05-12T13:49:36;99036.13;;;18.68;35.54
73103;BME280;61294;65.988;29.172;2023-05-12T13:52:02;99043.13;;;19.00;34.79
73103;BME280;61294;65.988;29.172;2023-05-12T13:54:29;99037.34;;;18.57;35.07
73103;BME280;61294;65.988;29.172;2023-05-12T13:56:55;99041.22;;;18.47;35.41
73103;BME280;61294;65.988;29.172;2023-05-12T13:59:21;99041.63;;;18.33;35.72
73103;BME280;61294;65.988;29.172;2023-05-12T14:01:47;99038.03;;;18.64;35.19
73103;BME280;61294;65.988;29.172;2023-05-12T14:04:13;99045.19;;;18.62;35.36
73103;BME280;61294;65.988;29.172;2023-05-12T14:06:39;99049.44;;;18.97;34.79
73103;BME280;61294;65.988;29.172;2023-05-12T14:09:05;99017.28;;;18.14;35.35
73103;BME280;61294;65.988;29.172;2023-05-12T14:11:31;99045.50;;;17.90;35.60
73103;BME280;61294;65.988;29.172;2023-05-12T14:13:57;99043.69;;;17.93;35.99
73103;BME280;61294;65.988;29.172;2023-05-12T14:16:28;99043.19;;;18.40;35.61
73103;BME280;61294;65.988;29.172;2023-05-12T14:18:54;99052.09;;;18.09;36.79
73103;BME280;61294;65.988;29.172;2023-05-12T14:21:21;99046.09;;;18.03;36.12
73103;BME280;61294;65.988;29.172;2023-05-12T14:23:47;99057.44;;;17.43;36.56
73103;BME280;61294;65.988;29.172;2023-05-12T14:26:14;99039.63;;;17.79;36.72
73103;BME280;61294;65.988;29.172;2023-05-12T14:28:39;99058.56;;;18.32;36.25
73103;BME280;61294;65.988;29.172;2023-05-12T14:31:06;99074.16;;;18.46;36.30
73103;BME280;61294;65.988;29.172;2023-05-12T14:33:31;99062.63;;;18.14;36.05
73103;BME280;61294;65.988;29.172;2023-05-12T14:35:57;99050.78;;;17.60;37.03
73103;BME280;61294;65.988;29.172;2023-05-12T14:38:23;99054.56;;;17.84;36.88
73103;BME280;61294;65.988;29.172;2023-05-12T14:40:49;99068.38;;;18.00;36.96
73103;BME280;61294;65.988;29.172;2023-05-12T14:43:15;99060.28;;;17.70;36.75
73103;BME280;61294;65.988;29.172;2023-05-12T14:45:42;99066.72;;;17.62;36.92
73103;BME280;61294;65.988;29.172;2023-05-12T14:48:09;99057.63;;;17.70;36.95
73103;BME280;61294;65.988;29.172;2023-05-12T14:50:35;99058.97;;;17.85;36.17
73103;BME280;61294;65.988;29.172;2023-05-12T14:53:02;99064.09;;;17.94;36.40
73103;BME280;61294;65.988;29.172;2023-05-12T14:55:28;99076.56;;;17.58;36.60
73103;BME280;61294;65.988;29.172;2023-05-12T14:57:54;99059.97;;;17.48;36.74
73103;BME280;61294;65.988;29.172;2023-05-12T15:00:20;99072.28;;;17.52;36.62
73103;BME280;61294;65.988;29.172;2023-05-12T15:02:46;99093.06;;;17.38;37.34
73103;BME280;61294;65.988;29.172;2023-05-12T15:05:13;99096.56;;;17.41;36.61
73103;BME280;61294;65.988;29.172;2023-05-12T15:07:39;99090.53;;;17.33;36.86
73103;BME280;61294;65.988;29.172;2023-05-12T15:10:05;99078.94;;;17.34;36.53
73103;BME280;61294;65.988;29.172;2023-05-12T15:12:32;99067.53;;;16.95;36.83
73103;BME280;61294;65.988;29.172;2023-05-12T15:14:58;99082.69;;;17.27;36.69
73103;BME280;61294;65.988;29.172;2023-05-12T15:17:26;99057.03;;;17.24;36.52
73103;BME280;61294;65.988;29.172;2023-05-12T15:19:55;99092.25;;;17.36;36.46
73103;BME280;61294;65.988;29.172;2023-05-12T15:22:22;99094.56;;;16.73;37.77
73103;BME280;61294;65.988;29.172;2023-05-12T15:24:47;99097.63;;;16.54;38.24
73103;BME280;61294;65.988;29.172;2023-05-12T15:27:13;99096.94;;;16.48;38.11
73103;BME280;61294;65.988;29.172;2023-05-12T15:29:39;99083.06;;;16.33;38.25
73103;BME280;61294;65.988;29.172;2023-05-12T15:32:06;99070.81;;;16.25;38.66
73103;BME280;61294;65.988;29.172;2023-05-12T15:34:35;99087.69;;;16.24;38.85
73103;BME280;61294;65.988;29.172;2023-05-12T15:37:01;99092.44;;;16.08;39.40
73103;BME280;61294;65.988;29.172;2023-05-12T15:39:26;99081.69;;;16.14;38.13
73103;BME280;61294;65.988;29.172;2023-05-12T15:41:52;99079.28;;;16.00;37.99
73103;BME280;61294;65.988;29.172;2023-05-12T15:44:18;99100.47;;;16.03;38.09